sensor_id;sensor_type;location;lat;lon;timestamp;pressure;altitude;pressure_sealevel;temperature
66113;BMP280;52893;52.870;5.822;2023-07-31T00:00:40;100652.69;;;17.04
66113;BMP280;52893;52.870;5.822;2023-07-31T00:03:08;100638.00;;;16.96
66113;BMP280;52893;52.870;5.822;2023-07-31T00:05:36;100664.59;;;17.15
66113;BMP280;52893;52.870;5.822;2023-07-31T00:08:03;100671.72;;;17.16
66113;BMP280;52893;52.870;5.822;2023-07-31T00:10:30;100674.13;;;17.18
66113;BMP280;52893;52.870;5.822;2023-07-31T00:12:57;100676.50;;;17.19
66113;BMP280;52893;52.870;5.822;2023-07-31T00:15:25;100669.81;;;17.20
66113;BMP280;52893;52.870;5.822;2023-07-31T00:17:54;100665.41;;;17.16
66113;BMP280;52893;52.870;5.822;2023-07-31T00:20:21;100667.13;;;17.27
66113;BMP280;52893;52.870;5.822;2023-07-31T00:22:48;100635.44;;;17.14
66113;BMP280;52893;52.870;5.822;2023-07-31T00:25:15;100644.31;;;17.34
66113;BMP280;52893;52.870;5.822;2023-07-31T00:27:43;100643.59;;;17.37
66113;BMP280;52893;52.870;5.822;2023-07-31T00:30:11;100638.44;;;17.35
66113;BMP280;52893;52.870;5.822;2023-07-31T00:32:39;100647.50;;;17.32
66113;BMP280;52893;52.870;5.822;2023-07-31T00:35:08;100638.31;;;17.25
66113;BMP280;52893;52.870;5.822;2023-07-31T00:37:35;100635.53;;;17.21
66113;BMP280;52893;52.870;5.822;2023-07-31T00:40:03;100625.25;;;17.18
66113;BMP280;52893;52.870;5.822;2023-07-31T00:42:31;100608.50;;;17.00
66113;BMP280;52893;52.870;5.822;2023-07-31T00:44:58;100625.53;;;17.10
66113;BMP280;52893;52.870;5.822;2023-07-31T00:47:25;100619.63;;;17.08
66113;BMP280;52893;52.870;5.822;2023-07-31T00:49:53;100617.22;;;17.06
66113;BMP280;52893;52.870;5.822;2023-07-31T00:52:21;100603.75;;;16.97
66113;BMP280;52893;52.870;5.822;2023-07-31T00:54:49;100599.38;;;16.93
66113;BMP280;52893;52.870;5.822;2023-07-31T00:57:16;100611.63;;;16.99
66113;BMP280;52893;52.870;5.822;2023-07-31T00:59:44;100599.31;;;16.89
66113;BMP280;52893;52.870;5.822;2023-07-31T01:02:12;100611.56;;;16.95
66113;BMP280;52893;52.870;5.822;2023-07-31T01:04:41;100619.47;;;16.93
66113;BMP280;52893;52.870;5.822;2023-07-31T01:07:12;100618.69;;;16.93
66113;BMP280;52893;52.870;5.822;2023-07-31T01:09:45;100605.28;;;16.95
66113;BMP280;52893;52.870;5.822;2023-07-31T01:12:15;100602.94;;;16.97
66113;BMP280;52893;52.870;5.822;2023-07-31T01:15:02;100606.50;;;16.97
66113;BMP280;52893;52.870;5.822;2023-07-31T01:17:30;100603.75;;;16.97
66113;BMP280;52893;52.870;5.822;2023-07-31T01:20:01;100603.75;;;16.97
66113;BMP280;52893;52.870;5.822;2023-07-31T01:25:41;100599.88;;;17.02
66113;BMP280;52893;52.870;5.822;2023-07-31T01:28:13;100593.56;;;17.05
66113;BMP280;52893;52.870;5.822;2023-07-31T01:30:43;100602.69;;;17.09
66113;BMP280;52893;52.870;5.822;2023-07-31T01:33:10;100598.41;;;17.12
66113;BMP280;52893;52.870;5.822;2023-07-31T01:35:39;100594.84;;;17.15
66113;BMP280;52893;52.870;5.822;2023-07-31T01:38:07;100588.22;;;17.19
66113;BMP280;52893;52.870;5.822;2023-07-31T01:40:34;100588.66;;;17.21
66113;BMP280;52893;52.870;5.822;2023-07-31T01:43:07;100551.41;;;17.04
66113;BMP280;52893;52.870;5.822;2023-07-31T01:45:35;100569.31;;;17.18
66113;BMP280;52893;52.870;5.822;2023-07-31T01:48:02;100582.84;;;17.33
66113;BMP280;52893;52.870;5.822;2023-07-31T01:50:29;100584.06;;;17.36
66113;BMP280;52893;52.870;5.822;2023-07-31T01:52:57;100569.44;;;17.32
66113;BMP280;52893;52.870;5.822;2023-07-31T01:55:24;100582.91;;;17.40
66113;BMP280;52893;52.870;5.822;2023-07-31T01:57:51;100568.69;;;17.38
66113;BMP280;52893;52.870;5.822;2023-07-31T02:00:20;100568.28;;;17.36
66113;BMP280;52893;52.870;5.822;2023-07-31T02:02:47;100560.75;;;17.30
66113;BMP280;52893;52.870;5.822;2023-07-31T02:05:14;100556.81;;;17.31
66113;BMP280;52893;52.870;5.822;2023-07-31T02:07:42;100559.16;;;17.29
66113;BMP280;52893;52.870;5.822;2023-07-31T02:10:09;100533.84;;;17.20
66113;BMP280;52893;52.870;5.822;2023-07-31T02:12:37;100537.84;;;17.26
66113;BMP280;52893;52.870;5.822;2023-07-31T02:15:04;100548.88;;;17.26
66113;BMP280;52893;52.870;5.822;2023-07-31T02:17:34;100542.13;;;17.20
66113;BMP280;52893;52.870;5.822;2023-07-31T02:20:01;100544.94;;;17.27
66113;BMP280;52893;52.870;5.822;2023-07-31T02:22:30;100548.06;;;17.25
66113;BMP280;52893;52.870;5.822;2023-07-31T02:24:58;100548.06;;;17.22
66113;BMP280;52893;52.870;5.822;2023-07-31T02:27:25;100542.88;;;17.17
66113;BMP280;52893;52.870;5.822;2023-07-31T02:29:54;100540.88;;;17.14
66113;BMP280;52893;52.870;5.822;2023-07-31T02:32:21;100525.34;;;16.95
66113;BMP280;52893;52.870;5.822;2023-07-31T02:34:51;100534.06;;;17.00
66113;BMP280;52893;52.870;5.822;2023-07-31T02:37:18;100534.00;;;16.97
66113;BMP280;52893;52.870;5.822;2023-07-31T02:39:46;100492.34;;;16.69
66113;BMP280;52893;52.870;5.822;2023-07-31T02:42:16;100485.16;;;16.61
66113;BMP280;52893;52.870;5.822;2023-07-31T02:44:43;100531.13;;;16.86
66113;BMP280;52893;52.870;5.822;2023-07-31T02:47:10;100545.84;;;16.97
66113;BMP280;52893;52.870;5.822;2023-07-31T02:49:38;100541.53;;;17.00
66113;BMP280;52893;52.870;5.822;2023-07-31T02:52:07;100532.44;;;16.99
66113;BMP280;52893;52.870;5.822;2023-07-31T02:54:34;100524.97;;;17.00
66113;BMP280;52893;52.870;5.822;2023-07-31T02:57:01;100513.84;;;16.89
66113;BMP280;52893;52.870;5.822;2023-07-31T02:59:29;100515.53;;;17.01
66113;BMP280;52893;52.870;5.822;2023-07-31T03:01:56;100517.94;;;17.02
66113;BMP280;52893;52.870;5.822;2023-07-31T03:04:23;100511.22;;;17.03
66113;BMP280;52893;52.870;5.822;2023-07-31T03:06:50;100512.44;;;17.06
66113;BMP280;52893;52.870;5.822;2023-07-31T03:09:20;100514.81;;;17.08
66113;BMP280;52893;52.870;5.822;2023-07-31T03:11:47;100508.53;;;17.11
66113;BMP280;52893;52.870;5.822;2023-07-31T03:14:15;100517.25;;;17.13
66113;BMP280;52893;52.870;5.822;2023-07-31T03:16:42;100514.88;;;17.15
66113;BMP280;52893;52.870;5.822;2023-07-31T03:19:09;100513.34;;;17.17
66113;BMP280;52893;52.870;5.822;2023-07-31T03:21:36;100506.25;;;17.20
66113;BMP280;52893;52.870;5.822;2023-07-31T03:24:04;100513.38;;;17.24
66113;BMP280;52893;52.870;5.822;2023-07-31T03:26:33;100496.78;;;17.17
66113;BMP280;52893;52.870;5.822;2023-07-31T03:29:01;100481.72;;;17.08
66113;BMP280;52893;52.870;5.822;2023-07-31T03:31:29;100515.75;;;17.26
66113;BMP280;52893;52.870;5.822;2023-07-31T03:33:56;100522.44;;;17.25
66113;BMP280;52893;52.870;5.822;2023-07-31T03:36:23;100511.84;;;17.23
66113;BMP280;52893;52.870;5.822;2023-07-31T03:38:51;100488.88;;;17.12
66113;BMP280;52893;52.870;5.822;2023-07-31T03:41:18;100511.41;;;17.25
66113;BMP280;52893;52.870;5.822;2023-07-31T03:43:50;100498.44;;;17.29
66113;BMP280;52893;52.870;5.822;2023-07-31T03:46:18;100476.78;;;17.27
66113;BMP280;52893;52.870;5.822;2023-07-31T03:48:46;100499.34;;;17.40
66113;BMP280;52893;52.870;5.822;2023-07-31T03:51:13;100485.97;;;17.45
66113;BMP280;52893;52.870;5.822;2023-07-31T03:53:40;100486.00;;;17.49
66113;BMP280;52893;52.870;5.822;2023-07-31T03:56:08;100477.34;;;17.54
66113;BMP280;52893;52.870;5.822;2023-07-31T03:58:35;100468.69;;;17.52
66113;BMP280;52893;52.870;5.822;2023-07-31T04:01:05;100477.81;;;17.59
66113;BMP280;52893;52.870;5.822;2023-07-31T04:03:33;100482.16;;;17.61
66113;BMP280;52893;52.870;5.822;2023-07-31T04:06:00;100486.50;;;17.62
66113;BMP280;52893;52.870;5.822;2023-07-31T04:08:27;100477.41;;;17.61
66113;BMP280;52893;52.870;5.822;2023-07-31T04:10:54;100471.50;;;17.59
66113;BMP280;52893;52.870;5.822;2023-07-31T04:13:21;100470.31;;;17.60
66113;BMP280;52893;52.870;5.822;2023-07-31T04:15:49;100467.09;;;17.54
66113;BMP280;52893;52.870;5.822;2023-07-31T04:18:18;100461.59;;;17.54
66113;BMP280;52893;52.870;5.822;2023-07-31T04:20:45;100467.88;;;17.51
66113;BMP280;52893;52.870;5.822;2023-07-31T04:23:13;100464.34;;;17.51
66113;BMP280;52893;52.870;5.822;2023-07-31T04:25:40;100464.34;;;17.51
66113;BMP280;52893;52.870;5.822;2023-07-31T04:28:07;100450.09;;;17.42
66113;BMP280;52893;52.870;5.822;2023-07-31T04:30:34;100453.72;;;17.53
66113;BMP280;52893;52.870;5.822;2023-07-31T04:33:02;100437.06;;;17.42
66113;BMP280;52893;52.870;5.822;2023-07-31T04:35:30;100440.28;;;17.48
66113;BMP280;52893;52.870;5.822;2023-07-31T04:37:58;100464.81;;;17.60
66113;BMP280;52893;52.870;5.822;2023-07-31T04:40:25;100462.41;;;17.58
66113;BMP280;52893;52.870;5.822;2023-07-31T04:42:52;100467.19;;;17.65
66113;BMP280;52893;52.870;5.822;2023-07-31T04:45:19;100462.09;;;17.67
66113;BMP280;52893;52.870;5.822;2023-07-31T04:47:46;100463.28;;;17.70
66113;BMP280;52893;52.870;5.822;2023-07-31T04:50:13;100456.19;;;17.72
66113;BMP280;52893;52.870;5.822;2023-07-31T04:52:42;100452.25;;;17.73
66113;BMP280;52893;52.870;5.822;2023-07-31T04:55:09;100339.81;;;16.94
66113;BMP280;52893;52.870;5.822;2023-07-31T04:57:36;100461.75;;;17.76
66113;BMP280;52893;52.870;5.822;2023-07-31T05:00:05;100453.47;;;17.76
66113;BMP280;52893;52.870;5.822;2023-07-31T05:02:32;100456.63;;;17.78
66113;BMP280;52893;52.870;5.822;2023-07-31T05:04:59;100439.63;;;17.69
66113;BMP280;52893;52.870;5.822;2023-07-31T05:07:26;100429.38;;;17.69
66113;BMP280;52893;52.870;5.822;2023-07-31T05:09:55;100455.47;;;17.82
66113;BMP280;52893;52.870;5.822;2023-07-31T05:12:22;100427.78;;;17.68
66113;BMP280;52893;52.870;5.822;2023-07-31T05:14:49;100439.66;;;17.76
66113;BMP280;52893;52.870;5.822;2023-07-31T05:17:16;100448.38;;;17.85
66113;BMP280;52893;52.870;5.822;2023-07-31T05:19:44;100405.28;;;17.66
66113;BMP280;52893;52.870;5.822;2023-07-31T05:22:11;100438.91;;;17.89
66113;BMP280;52893;52.870;5.822;2023-07-31T05:24:40;100446.03;;;17.90
66113;BMP280;52893;52.870;5.822;2023-07-31T05:27:08;100436.56;;;17.91
66113;BMP280;52893;52.870;5.822;2023-07-31T05:29:36;100431.84;;;17.88
66113;BMP280;52893;52.870;5.822;2023-07-31T05:32:04;100443.31;;;17.97
66113;BMP280;52893;52.870;5.822;2023-07-31T05:34:31;100438.59;;;17.98
66113;BMP280;52893;52.870;5.822;2023-07-31T05:36:58;100441.75;;;18.03
66113;BMP280;52893;52.870;5.822;2023-07-31T05:39:26;100430.31;;;18.08
66113;BMP280;52893;52.870;5.822;2023-07-31T05:41:53;100433.13;;;18.16
66113;BMP280;52893;52.870;5.822;2023-07-31T05:44:21;100423.25;;;18.18
66113;BMP280;52893;52.870;5.822;2023-07-31T05:46:48;100430.75;;;18.21
66113;BMP280;52893;52.870;5.822;2023-07-31T05:49:16;100424.50;;;18.24
66113;BMP280;52893;52.870;5.822;2023-07-31T05:51:43;100427.22;;;18.28
66113;BMP280;52893;52.870;5.822;2023-07-31T05:54:10;100411.06;;;18.23
66113;BMP280;52893;52.870;5.822;2023-07-31T05:56:37;100415.78;;;18.26
66113;BMP280;52893;52.870;5.822;2023-07-31T05:59:04;100389.28;;;18.07
66113;BMP280;52893;52.870;5.822;2023-07-31T06:01:33;100409.44;;;18.18
66113;BMP280;52893;52.870;5.822;2023-07-31T06:04:00;100418.56;;;18.26
66113;BMP280;52893;52.870;5.822;2023-07-31T06:06:27;100417.00;;;18.25
66113;BMP280;52893;52.870;5.822;2023-07-31T06:08:55;100409.47;;;18.22
66113;BMP280;52893;52.870;5.822;2023-07-31T06:11:22;100417.75;;;18.25
66113;BMP280;52893;52.870;5.822;2023-07-31T06:13:50;100416.16;;;18.21
66113;BMP280;52893;52.870;5.822;2023-07-31T06:16:17;100416.16;;;18.13
66113;BMP280;52893;52.870;5.822;2023-07-31T06:18:45;100401.50;;;18.02
66113;BMP280;52893;52.870;5.822;2023-07-31T06:21:13;100393.22;;;17.95
66113;BMP280;52893;52.870;5.822;2023-07-31T06:23:40;100398.34;;;18.00
66113;BMP280;52893;52.870;5.822;2023-07-31T06:26:08;100397.56;;;17.96
66113;BMP280;52893;52.870;5.822;2023-07-31T06:28:35;100393.59;;;17.94
66113;BMP280;52893;52.870;5.822;2023-07-31T06:31:02;100383.69;;;17.82
66113;BMP280;52893;52.870;5.822;2023-07-31T06:33:29;100386.06;;;17.87
66113;BMP280;52893;52.870;5.822;2023-07-31T06:35:58;100380.16;;;17.89
66113;BMP280;52893;52.870;5.822;2023-07-31T06:38:26;100370.28;;;17.84
66113;BMP280;52893;52.870;5.822;2023-07-31T06:40:53;100365.56;;;17.88
66113;BMP280;52893;52.870;5.822;2023-07-31T06:43:20;100369.09;;;17.92
66113;BMP280;52893;52.870;5.822;2023-07-31T06:45:48;100348.19;;;17.84
66113;BMP280;52893;52.870;5.822;2023-07-31T06:48:17;100351.38;;;17.86
66113;BMP280;52893;52.870;5.822;2023-07-31T06:50:44;100359.25;;;17.91
66113;BMP280;52893;52.870;5.822;2023-07-31T06:53:12;100362.84;;;17.95
66113;BMP280;52893;52.870;5.822;2023-07-31T06:55:40;100359.66;;;17.93
66113;BMP280;52893;52.870;5.822;2023-07-31T06:58:07;100341.50;;;17.85
66113;BMP280;52893;52.870;5.822;2023-07-31T07:00:34;100348.19;;;17.84
66113;BMP280;52893;52.870;5.822;2023-07-31T07:03:01;100346.59;;;17.83
66113;BMP280;52893;52.870;5.822;2023-07-31T07:05:28;100329.25;;;17.79
66113;BMP280;52893;52.870;5.822;2023-07-31T07:07:56;100317.31;;;17.61
66113;BMP280;52893;52.870;5.822;2023-07-31T07:10:24;100329.97;;;17.66
66113;BMP280;52893;52.870;5.822;2023-07-31T07:12:53;100326.84;;;17.67
66113;BMP280;52893;52.870;5.822;2023-07-31T07:15:21;100325.25;;;17.66
66113;BMP280;52893;52.870;5.822;2023-07-31T07:17:48;100309.03;;;17.61
66113;BMP280;52893;52.870;5.822;2023-07-31T07:20:15;100306.28;;;17.65
66113;BMP280;52893;52.870;5.822;2023-07-31T07:22:43;100327.25;;;17.76
66113;BMP280;52893;52.870;5.822;2023-07-31T07:25:10;100320.13;;;17.68
66113;BMP280;52893;52.870;5.822;2023-07-31T07:27:38;100313.41;;;17.69
66113;BMP280;52893;52.870;5.822;2023-07-31T07:30:06;100311.03;;;17.64
66113;BMP280;52893;52.870;5.822;2023-07-31T07:32:34;100316.56;;;17.71
66113;BMP280;52893;52.870;5.822;2023-07-31T07:35:01;100309.50;;;17.70
66113;BMP280;52893;52.870;5.822;2023-07-31T07:37:29;100313.81;;;17.71
66113;BMP280;52893;52.870;5.822;2023-07-31T07:39:56;100304.38;;;17.72
66113;BMP280;52893;52.870;5.822;2023-07-31T07:42:23;100311.44;;;17.73
66113;BMP280;52893;52.870;5.822;2023-07-31T07:44:52;100310.69;;;17.76
66113;BMP280;52893;52.870;5.822;2023-07-31T07:47:19;100300.84;;;17.79
66113;BMP280;52893;52.870;5.822;2023-07-31T07:49:46;100298.47;;;17.77
66113;BMP280;52893;52.870;5.822;2023-07-31T07:52:13;100300.81;;;17.75
66113;BMP280;52893;52.870;5.822;2023-07-31T07:54:40;100300.03;;;17.78
66113;BMP280;52893;52.870;5.822;2023-07-31T07:57:08;100298.47;;;17.84
66113;BMP280;52893;52.870;5.822;2023-07-31T07:59:35;100293.75;;;17.88
66113;BMP280;52893;52.870;5.822;2023-07-31T08:02:03;100291.00;;;17.88
66113;BMP280;52893;52.870;5.822;2023-07-31T08:04:31;100284.69;;;17.91
66113;BMP280;52893;52.870;5.822;2023-07-31T08:06:58;100291.81;;;17.96
66113;BMP280;52893;52.870;5.822;2023-07-31T08:09:25;100285.09;;;17.97
66113;BMP280;52893;52.870;5.822;2023-07-31T08:11:52;100282.72;;;17.99
66113;BMP280;52893;52.870;5.822;2023-07-31T08:14:20;100281.56;;;18.00
66113;BMP280;52893;52.870;5.822;2023-07-31T08:16:47;100275.63;;;18.01
66113;BMP280;52893;52.870;5.822;2023-07-31T08:19:16;100265.38;;;18.02
66113;BMP280;52893;52.870;5.822;2023-07-31T08:21:43;100275.66;;;18.05
66113;BMP280;52893;52.870;5.822;2023-07-31T08:24:10;100263.41;;;18.09
66113;BMP280;52893;52.870;5.822;2023-07-31T08:26:37;100272.50;;;18.13
66113;BMP280;52893;52.870;5.822;2023-07-31T08:29:05;100265.00;;;18.18
66113;BMP280;52893;52.870;5.822;2023-07-31T08:31:32;100263.81;;;18.19
66113;BMP280;52893;52.870;5.822;2023-07-31T08:34:00;100265.78;;;18.22
66113;BMP280;52893;52.870;5.822;2023-07-31T08:36:29;100265.78;;;18.22
66113;BMP280;52893;52.870;5.822;2023-07-31T08:38:56;100266.22;;;18.24
66113;BMP280;52893;52.870;5.822;2023-07-31T08:41:23;100257.91;;;18.24
66113;BMP280;52893;52.870;5.822;2023-07-31T08:43:51;100261.88;;;18.26
66113;BMP280;52893;52.870;5.822;2023-07-31T08:46:20;100258.69;;;18.28
66113;BMP280;52893;52.870;5.822;2023-07-31T08:48:48;100259.88;;;18.30
66113;BMP280;52893;52.870;5.822;2023-07-31T08:51:15;100250.41;;;18.35
66113;BMP280;52893;52.870;5.822;2023-07-31T08:53:44;100254.34;;;18.37
66113;BMP280;52893;52.870;5.822;2023-07-31T08:56:11;100237.78;;;18.41
66113;BMP280;52893;52.870;5.822;2023-07-31T08:58:40;100248.81;;;18.44
66113;BMP280;52893;52.870;5.822;2023-07-31T09:01:07;100241.34;;;18.45
66113;BMP280;52893;52.870;5.822;2023-07-31T09:03:36;100250.38;;;18.56
66113;BMP280;52893;52.870;5.822;2023-07-31T09:06:04;100244.88;;;18.63
66113;BMP280;52893;52.870;5.822;2023-07-31T09:08:32;100252.75;;;18.72
66113;BMP280;52893;52.870;5.822;2023-07-31T09:11:02;100245.63;;;18.81
66113;BMP280;52893;52.870;5.822;2023-07-31T09:13:31;100243.97;;;18.94
66113;BMP280;52893;52.870;5.822;2023-07-31T09:15:58;100236.44;;;19.05
66113;BMP280;52893;52.870;5.822;2023-07-31T09:18:25;100226.53;;;19.18
66113;BMP280;52893;52.870;5.822;2023-07-31T09:21:02;100230.41;;;19.32
66113;BMP280;52893;52.870;5.822;2023-07-31T09:23:40;100248.13;;;19.48
66113;BMP280;52893;52.870;5.822;2023-07-31T09:26:09;100228.72;;;19.55
66113;BMP280;52893;52.870;5.822;2023-07-31T09:28:37;100223.19;;;19.52
66113;BMP280;52893;52.870;5.822;2023-07-31T09:31:04;100234.16;;;19.73
66113;BMP280;52893;52.870;5.822;2023-07-31T09:33:31;100223.06;;;19.73
66113;BMP280;52893;52.870;5.822;2023-07-31T09:35:59;100229.66;;;19.90
66113;BMP280;52893;52.870;5.822;2023-07-31T09:38:27;100226.16;;;19.86
66113;BMP280;52893;52.870;5.822;2023-07-31T09:40:55;100236.78;;;19.87
66113;BMP280;52893;52.870;5.822;2023-07-31T09:43:27;100240.41;;;19.84
66113;BMP280;52893;52.870;5.822;2023-07-31T09:45:55;100231.69;;;19.86
66113;BMP280;52893;52.870;5.822;2023-07-31T09:48:24;100233.66;;;19.85
66113;BMP280;52893;52.870;5.822;2023-07-31T09:50:53;100227.72;;;19.83
66113;BMP280;52893;52.870;5.822;2023-07-31T09:53:27;100229.31;;;19.84
66113;BMP280;52893;52.870;5.822;2023-07-31T09:55:57;100232.09;;;19.84
66113;BMP280;52893;52.870;5.822;2023-07-31T09:58:28;100226.53;;;19.84
66113;BMP280;52893;52.870;5.822;2023-07-31T10:00:57;100225.38;;;19.85
66113;BMP280;52893;52.870;5.822;2023-07-31T10:03:25;100229.25;;;19.91
66113;BMP280;52893;52.870;5.822;2023-07-31T10:05:55;100222.13;;;19.94
66113;BMP280;52893;52.870;5.822;2023-07-31T10:08:27;100232.41;;;19.93
66113;BMP280;52893;52.870;5.822;2023-07-31T10:10:58;100229.19;;;19.98
66113;BMP280;52893;52.870;5.822;2023-07-31T10:13:27;100231.50;;;20.07
66113;BMP280;52893;52.870;5.822;2023-07-31T10:15:58;100224.34;;;20.13
66113;BMP280;52893;52.870;5.822;2023-07-31T10:18:26;100221.91;;;20.18
66113;BMP280;52893;52.870;5.822;2023-07-31T10:20:54;100217.47;;;20.28
66113;BMP280;52893;52.870;5.822;2023-07-31T10:23:22;100226.19;;;20.26
66113;BMP280;52893;52.870;5.822;2023-07-31T10:25:53;100236.53;;;20.22
66113;BMP280;52893;52.870;5.822;2023-07-31T10:28:21;100224.38;;;20.06
66113;BMP280;52893;52.870;5.822;2023-07-31T10:30:50;100229.13;;;20.05
66113;BMP280;52893;52.870;5.822;2023-07-31T10:33:18;100230.84;;;19.92
66113;BMP280;52893;52.870;5.822;2023-07-31T10:35:47;100215.13;;;19.75
66113;BMP280;52893;52.870;5.822;2023-07-31T10:38:14;100232.50;;;19.79
66113;BMP280;52893;52.870;5.822;2023-07-31T10:40:41;100229.03;;;19.68
66113;BMP280;52893;52.870;5.822;2023-07-31T10:43:08;100222.34;;;19.62
66113;BMP280;52893;52.870;5.822;2023-07-31T10:45:38;100228.69;;;19.59
66113;BMP280;52893;52.870;5.822;2023-07-31T10:48:12;100222.75;;;19.57
66113;BMP280;52893;52.870;5.822;2023-07-31T10:50:47;100233.84;;;19.53
66113;BMP280;52893;52.870;5.822;2023-07-31T10:53:22;100234.28;;;19.52
66113;BMP280;52893;52.870;5.822;2023-07-31T10:55:50;100228.75;;;19.52
66113;BMP280;52893;52.870;5.822;2023-07-31T10:58:19;100225.56;;;19.50
66113;BMP280;52893;52.870;5.822;2023-07-31T11:00:47;100232.25;;;19.59
66113;BMP280;52893;52.870;5.822;2023-07-31T11:03:16;100239.38;;;19.60
66113;BMP280;52893;52.870;5.822;2023-07-31T11:05:49;100236.59;;;19.57
66113;BMP280;52893;52.870;5.822;2023-07-31T11:08:17;100224.81;;;19.46
66113;BMP280;52893;52.870;5.822;2023-07-31T11:10:46;100229.13;;;19.54
66113;BMP280;52893;52.870;5.822;2023-07-31T11:13:14;100240.59;;;19.56
66113;BMP280;52893;52.870;5.822;2023-07-31T11:15:41;100232.66;;;19.58
66113;BMP280;52893;52.870;5.822;2023-07-31T11:18:08;100240.97;;;19.58
66113;BMP280;52893;52.870;5.822;2023-07-31T11:20:38;100238.59;;;19.53
66113;BMP280;52893;52.870;5.822;2023-07-31T11:23:08;100229.91;;;19.51
66113;BMP280;52893;52.870;5.822;2023-07-31T11:25:36;100221.59;;;19.58
66113;BMP280;52893;52.870;5.822;2023-07-31T11:28:05;100229.38;;;19.70
66113;BMP280;52893;52.870;5.822;2023-07-31T11:30:34;100219.06;;;19.81
66113;BMP280;52893;52.870;5.822;2023-07-31T11:33:02;100221.41;;;19.86
66113;BMP280;52893;52.870;5.822;2023-07-31T11:35:31;100223.34;;;19.89
66113;BMP280;52893;52.870;5.822;2023-07-31T11:38:00;100232.03;;;19.91
66113;BMP280;52893;52.870;5.822;2023-07-31T11:40:28;100234.00;;;19.87
66113;BMP280;52893;52.870;5.822;2023-07-31T11:42:56;100231.72;;;19.82
66113;BMP280;52893;52.870;5.822;2023-07-31T11:45:25;100227.00;;;19.75
66113;BMP280;52893;52.870;5.822;2023-07-31T11:47:54;100229.00;;;19.71
66113;BMP280;52893;52.870;5.822;2023-07-31T11:50:21;100234.97;;;19.66
66113;BMP280;52893;52.870;5.822;2023-07-31T11:52:52;100232.66;;;19.58
66113;BMP280;52893;52.870;5.822;2023-07-31T11:55:23;100238.28;;;19.47
66113;BMP280;52893;52.870;5.822;2023-07-31T11:57:51;100241.44;;;19.46
66113;BMP280;52893;52.870;5.822;2023-07-31T12:00:19;100235.16;;;19.38
66113;BMP280;52893;52.870;5.822;2023-07-31T12:02:46;100235.56;;;19.33
66113;BMP280;52893;52.870;5.822;2023-07-31T12:05:14;100234.34;;;19.31
66113;BMP280;52893;52.870;5.822;2023-07-31T12:07:46;100230.78;;;19.30
66113;BMP280;52893;52.870;5.822;2023-07-31T12:10:28;100224.06;;;19.31
66113;BMP280;52893;52.870;5.822;2023-07-31T12:13:00;100225.66;;;19.32
66113;BMP280;52893;52.870;5.822;2023-07-31T12:15:39;100228.78;;;19.41
66113;BMP280;52893;52.870;5.822;2023-07-31T12:18:08;100225.53;;;19.57
66113;BMP280;52893;52.870;5.822;2023-07-31T12:20:40;100222.28;;;19.69
66113;BMP280;52893;52.870;5.822;2023-07-31T12:23:12;100213.63;;;19.67
66113;BMP280;52893;52.870;5.822;2023-07-31T12:25:41;100223.72;;;19.91
66113;BMP280;52893;52.870;5.822;2023-07-31T12:28:09;100233.47;;;20.10
66113;BMP280;52893;52.870;5.822;2023-07-31T12:30:39;100218.66;;;20.27
66113;BMP280;52893;52.870;5.822;2023-07-31T12:33:12;100205.91;;;20.37
66113;BMP280;52893;52.870;5.822;2023-07-31T12:35:46;100226.78;;;20.48
66113;BMP280;52893;52.870;5.822;2023-07-31T12:38:13;100223.88;;;20.59
66113;BMP280;52893;52.870;5.822;2023-07-31T12:40:42;100222.22;;;20.68
66113;BMP280;52893;52.870;5.822;2023-07-31T12:43:09;100218.53;;;20.78
66113;BMP280;52893;52.870;5.822;2023-07-31T12:45:36;100224.44;;;20.80
66113;BMP280;52893;52.870;5.822;2023-07-31T12:48:04;100220.53;;;20.78
66113;BMP280;52893;52.870;5.822;2023-07-31T12:50:31;100230.94;;;20.67
66113;BMP280;52893;52.870;5.822;2023-07-31T12:52:58;100233.47;;;20.51
66113;BMP280;52893;52.870;5.822;2023-07-31T12:55:25;100242.00;;;20.29
66113;BMP280;52893;52.870;5.822;2023-07-31T12:57:54;100229.03;;;20.19
66113;BMP280;52893;52.870;5.822;2023-07-31T13:00:21;100226.28;;;20.16
66113;BMP280;52893;52.870;5.822;2023-07-31T13:02:48;100227.09;;;20.16
66113;BMP280;52893;52.870;5.822;2023-07-31T13:05:15;100223.09;;;20.17
66113;BMP280;52893;52.870;5.822;2023-07-31T13:07:43;100192.28;;;20.08
66113;BMP280;52893;52.870;5.822;2023-07-31T13:10:10;100207.69;;;20.16
66113;BMP280;52893;52.870;5.822;2023-07-31T13:12:37;100207.69;;;20.16
66113;BMP280;52893;52.870;5.822;2023-07-31T13:15:07;100194.28;;;20.11
66113;BMP280;52893;52.870;5.822;2023-07-31T13:17:35;100198.22;;;20.14
66113;BMP280;52893;52.870;5.822;2023-07-31T13:20:02;100207.72;;;20.09
66113;BMP280;52893;52.870;5.822;2023-07-31T13:22:30;100210.13;;;20.11
66113;BMP280;52893;52.870;5.822;2023-07-31T13:24:57;100219.53;;;20.17
66113;BMP280;52893;52.870;5.822;2023-07-31T13:27:25;100236.94;;;20.17
66113;BMP280;52893;52.870;5.822;2023-07-31T13:29:52;100250.81;;;20.17
66113;BMP280;52893;52.870;5.822;2023-07-31T13:32:21;100272.19;;;20.20
66113;BMP280;52893;52.870;5.822;2023-07-31T13:34:48;100255.94;;;20.22
66113;BMP280;52893;52.870;5.822;2023-07-31T13:37:16;100262.22;;;20.26
66113;BMP280;52893;52.870;5.822;2023-07-31T13:39:43;100255.06;;;20.32
66113;BMP280;52893;52.870;5.822;2023-07-31T13:42:11;100243.09;;;20.39
66113;BMP280;52893;52.870;5.822;2023-07-31T13:44:38;100235.59;;;20.40
66113;BMP280;52893;52.870;5.822;2023-07-31T13:47:06;100224.00;;;20.48
66113;BMP280;52893;52.870;5.822;2023-07-31T13:49:35;100225.19;;;20.47
66113;BMP280;52893;52.870;5.822;2023-07-31T13:52:03;100205.75;;;20.51
66113;BMP280;52893;52.870;5.822;2023-07-31T13:54:30;100206.59;;;20.48
66113;BMP280;52893;52.870;5.822;2023-07-31T13:56:57;100205.75;;;20.51
66113;BMP280;52893;52.870;5.822;2023-07-31T13:59:25;100206.41;;;20.65
66113;BMP280;52893;52.870;5.822;2023-07-31T14:01:52;100198.47;;;20.64
66113;BMP280;52893;52.870;5.822;2023-07-31T14:04:19;100200.03;;;20.68